Time;durP1;ratioP1;P1;durP2;ratioP2;P2;SDS_P1;SDS_P2;PMS_P1;PMS_P2;Temp;Humidity;BMP_temperature;BMP_pressure;BME280_temperature;BME280_humidity;BME280_pressure;Samples;Min_cycle;Max_cycle;Signal;HPM_P1;HPM_P2
2024/04/22 00:01:24;;;;;;;2.28;1.42;;;13.60;94.20;;;;;;5383444;26;20037;-40
2024/04/22 00:03:50;;;;;;;2.67;1.85;;;13.50;94.20;;;;;;5383725;26;19997;-41
2024/04/22 00:06:15;;;;;;;1.85;1.63;;;13.50;94.20;;;;;;5383497;26;20008;-41
2024/04/22 00:08:41;;;;;;;1.98;1.77;;;13.50;94.50;;;;;;5383569;26;20007;-41
2024/04/22 00:11:07;;;;;;;2.08;1.33;;;13.50;94.20;;;;;;5383648;26;20010;-40
2024/04/22 00:13:33;;;;;;;1.90;1.65;;;13.50;94.20;;;;;;5383658;26;20480;-40
2024/04/22 00:15:59;;;;;;;2.47;1.60;;;13.60;94.20;;;;;;5383292;26;19992;-40
2024/04/22 00:18:24;;;;;;;1.92;1.65;;;13.50;94.20;;;;;;5383427;26;20008;-39
2024/04/22 00:20:50;;;;;;;2.33;1.80;;;13.50;94.20;;;;;;5383169;26;20011;-40
2024/04/22 00:23:16;;;;;;;4.70;1.85;;;13.50;94.20;;;;;;5382969;26;20000;-41
2024/04/22 00:25:42;;;;;;;3.40;1.55;;;13.50;94.20;;;;;;5381745;26;19996;-41
2024/04/22 00:28:07;;;;;;;1.67;1.52;;;13.50;94.20;;;;;;5383614;26;20008;-40
2024/04/22 00:30:33;;;;;;;2.40;1.55;;;13.50;94.20;;;;;;5383317;26;20345;-40
2024/04/22 00:32:58;;;;;;;2.35;1.63;;;13.50;94.20;;;;;;5383231;26;20000;-39
2024/04/22 00:35:24;;;;;;;2.42;1.60;;;13.50;94.20;;;;;;5383279;26;20000;-41
2024/04/22 00:37:50;;;;;;;2.83;1.52;;;13.50;94.20;;;;;;5383088;26;19996;-41
2024/04/22 00:40:15;;;;;;;2.10;1.60;;;13.50;94.20;;;;;;5383268;26;20426;-40
2024/04/22 00:42:43;;;;;;;2.53;1.60;;;13.50;94.50;;;;;;5383509;26;20000;-40
2024/04/22 00:45:10;;;;;;;2.40;1.73;;;13.50;94.20;;;;;;5382709;26;19996;-41
2024/04/22 00:47:36;;;;;;;2.35;1.60;;;13.50;94.20;;;;;;5383010;26;20047;-40
2024/04/22 00:50:03;;;;;;;1.65;1.40;;;13.50;94.20;;;;;;5382979;26;20461;-41
2024/04/22 00:52:30;;;;;;;1.92;1.50;;;13.50;94.20;;;;;;5382377;26;20341;-41
2024/04/22 00:54:55;;;;;;;4.25;1.65;;;13.50;94.20;;;;;;5382783;26;19992;-40
2024/04/22 00:57:22;;;;;;;2.30;1.63;;;13.50;94.20;;;;;;5382832;26;20006;-41
2024/04/22 00:59:48;;;;;;;3.42;1.65;;;13.50;94.20;;;;;;5382732;26;20000;-41
2024/04/22 01:02:14;;;;;;;2.08;1.70;;;13.50;94.20;;;;;;5381888;26;20028;-40
2024/04/22 01:04:42;;;;;;;1.63;1.52;;;13.40;94.20;;;;;;5382779;26;20012;-40
2024/04/22 01:07:08;;;;;;;3.03;1.92;;;13.50;94.20;;;;;;5382753;26;20004;-42
2024/04/22 01:09:33;;;;;;;3.70;1.52;;;13.50;94.20;;;;;;5382572;26;20024;-42
2024/04/22 01:11:59;;;;;;;1.92;1.50;;;13.40;94.20;;;;;;5382595;26;19996;-40
2024/04/22 01:14:25;;;;;;;2.20;1.70;;;13.50;94.20;;;;;;5382899;26;19996;-41
2024/04/22 01:16:55;;;;;;;2.63;1.60;;;13.50;94.20;;;;;;5382627;26;20004;-40
2024/04/22 01:19:21;;;;;;;2.55;1.58;;;13.40;94.20;;;;;;5382751;26;20011;-40
2024/04/22 01:21:48;;;;;;;1.95;1.60;;;13.40;94.20;;;;;;5382104;26;20040;-40
2024/04/22 01:24:14;;;;;;;3.70;1.60;;;13.40;94.20;;;;;;5382630;26;20003;-41
2024/04/22 01:26:40;;;;;;;4.30;1.77;;;13.40;94.20;;;;;;5382377;26;19996;-40
2024/04/22 01:29:05;;;;;;;2.65;1.67;;;13.40;94.10;;;;;;5382089;26;19996;-41
2024/04/22 01:31:33;;;;;;;1.85;1.40;;;13.40;94.10;;;;;;5382142;26;20010;-41
2024/04/22 01:33:58;;;;;;;3.53;1.65;;;13.40;94.20;;;;;;5382450;26;20070;-40
2024/04/22 01:36:24;;;;;;;2.85;1.80;;;13.40;94.20;;;;;;5382302;26;20012;-40
2024/04/22 01:38:50;;;;;;;2.70;2.00;;;13.40;94.20;;;;;;5382169;26;20412;-41
2024/04/22 01:41:16;;;;;;;3.15;1.60;;;13.40;94.10;;;;;;5382061;26;20000;-41
2024/04/22 01:43:42;;;;;;;2.25;1.60;;;13.40;94.20;;;;;;5382335;26;20015;-40
2024/04/22 01:46:07;;;;;;;2.05;1.55;;;13.40;94.10;;;;;;5382103;26;20076;-40
2024/04/22 01:48:33;;;;;;;2.28;1.70;;;13.40;94.10;;;;;;5381708;26;20456;-40
2024/04/22 01:50:59;;;;;;;2.45;1.95;;;13.40;94.10;;;;;;5381600;26;19996;-40
2024/04/22 01:53:24;;;;;;;1.90;1.50;;;13.40;94.20;;;;;;5382182;26;20007;-40
2024/04/22 01:55:56;;;;;;;3.20;1.77;;;13.40;94.20;;;;;;5381793;26;20007;-40
2024/04/22 01:58:22;;;;;;;2.03;1.60;;;13.40;94.20;;;;;;5382074;26;20069;-41
2024/04/22 02:00:48;;;;;;;2.13;1.60;;;13.40;94.20;;;;;;5380310;26;20008;-41
2024/04/22 02:03:13;;;;;;;1.45;1.30;;;13.40;94.20;;;;;;5381939;26;20004;-40
2024/04/22 02:05:41;;;;;;;2.13;1.80;;;13.40;94.20;;;;;;5381939;26;20011;-40
2024/04/22 02:08:06;;;;;;;1.73;1.50;;;13.30;94.10;;;;;;5381829;26;20011;-41
2024/04/22 02:10:32;;;;;;;2.00;1.50;;;13.30;94.10;;;;;;5381989;26;20040;-40
2024/04/22 02:13:00;;;;;;;2.05;1.42;;;13.40;94.10;;;;;;5381638;26;20000;-41
2024/04/22 02:15:25;;;;;;;2.78;1.80;;;13.40;94.10;;;;;;5381990;26;20000;-42
2024/04/22 02:17:51;;;;;;;2.60;1.50;;;13.40;94.10;;;;;;5381859;26;20000;-40
2024/04/22 02:20:17;;;;;;;2.33;1.90;;;13.40;94.10;;;;;;5381336;26;20326;-40
2024/04/22 02:22:42;;;;;;;2.97;1.63;;;13.30;94.10;;;;;;5381504;26;20008;-42
2024/04/22 02:25:08;;;;;;;2.70;1.65;;;13.30;94.10;;;;;;5381619;26;20007;-40
2024/04/22 02:27:34;;;;;;;2.65;1.83;;;13.30;94.10;;;;;;5381385;26;20011;-40
2024/04/22 02:29:59;;;;;;;2.40;1.45;;;13.30;94.10;;;;;;5381477;26;19996;-40
2024/04/22 02:32:27;;;;;;;2.72;1.30;;;13.30;94.10;;;;;;5381530;26;19996;-40
2024/04/22 02:34:53;;;;;;;2.03;1.70;;;13.30;94.10;;;;;;5381462;26;20003;-41
2024/04/22 02:37:18;;;;;;;1.83;1.50;;;13.30;94.10;;;;;;5381544;26;20020;-41
2024/04/22 02:39:44;;;;;;;2.25;1.63;;;13.30;94.10;;;;;;5381473;26;20349;-40
2024/04/22 02:42:09;;;;;;;3.10;1.90;;;13.30;94.10;;;;;;5381367;26;20408;-40
2024/04/22 02:44:38;;;;;;;3.10;1.30;;;13.30;94.10;;;;;;5381600;26;19996;-43
2024/04/22 02:47:04;;;;;;;2.45;1.60;;;13.30;94.10;;;;;;5380908;26;20015;-41
2024/04/22 02:49:30;;;;;;;2.35;1.67;;;13.30;94.10;;;;;;5380709;26;20000;-40
2024/04/22 02:51:55;;;;;;;2.63;1.80;;;13.30;94.10;;;;;;5380671;26;20070;-41
2024/04/22 02:54:25;;;;;;;2.28;1.60;;;13.30;94.10;;;;;;5379197;26;20015;-41
2024/04/22 02:56:51;;;;;;;2.22;1.60;;;13.30;94.10;;;;;;5380779;26;20004;-41
2024/04/22 02:59:16;;;;;;;2.20;1.63;;;13.30;94.10;;;;;;5380574;26;19996;-41
2024/04/22 03:01:42;;;;;;;1.70;1.40;;;13.30;94.10;;;;;;5380603;26;20019;-41
2024/04/22 03:04:08;;;;;;;2.00;1.48;;;13.30;94.10;;;;;;5380676;26;20000;-42
2024/04/22 03:06:33;;;;;;;1.60;1.40;;;13.20;94.10;;;;;;5380572;26;20000;-42
2024/04/22 03:08:59;;;;;;;1.88;1.30;;;13.30;94.10;;;;;;5380529;26;20012;-42
2024/04/22 03:11:25;;;;;;;3.53;1.80;;;13.30;94.10;;;;;;5380534;26;20000;-41
2024/04/22 03:13:51;;;;;;;2.85;1.42;;;13.20;94.10;;;;;;5380543;26;20007;-42
2024/04/22 03:16:17;;;;;;;2.10;1.60;;;13.20;94.10;;;;;;5380465;26;20004;-43
2024/04/22 03:18:45;;;;;;;2.67;1.77;;;13.20;94.10;;;;;;5380388;26;20007;-41
2024/04/22 03:21:11;;;;;;;2.03;1.50;;;13.20;94.10;;;;;;5380247;26;20074;-43
2024/04/22 03:23:37;;;;;;;1.63;1.52;;;13.20;94.10;;;;;;5380414;26;20036;-42
2024/04/22 03:26:03;;;;;;;2.20;1.77;;;13.20;94.00;;;;;;5379457;26;20011;-41
2024/04/22 03:28:28;;;;;;;1.52;1.42;;;13.20;94.10;;;;;;5380157;26;19996;-41
2024/04/22 03:30:54;;;;;;;2.05;1.50;;;13.20;94.00;;;;;;5380061;26;20070;-43
2024/04/22 03:33:20;;;;;;;2.97;1.58;;;13.20;94.00;;;;;;5380199;26;20000;-42
2024/04/22 03:35:45;;;;;;;2.08;1.33;;;13.20;94.00;;;;;;5380140;26;20643;-41
2024/04/22 03:38:14;;;;;;;2.00;1.60;;;13.20;94.10;;;;;;5379987;26;20012;-42
2024/04/22 03:40:39;;;;;;;2.85;1.42;;;13.20;94.10;;;;;;5380125;26;20004;-44
2024/04/22 03:43:05;;;;;;;1.77;1.40;;;13.20;94.10;;;;;;5379919;26;20012;-42
2024/04/22 03:45:30;;;;;;;1.88;1.65;;;13.20;94.00;;;;;;5380077;26;20006;-42
2024/04/22 03:50:40;;;;;;;1.75;1.58;;;13.20;94.00;;;;;;5380046;26;20006;-41
2024/04/22 03:53:07;;;;;;;4.60;1.60;;;13.20;94.00;;;;;;5380039;26;20000;-41
2024/04/22 03:55:33;;;;;;;1.83;1.30;;;13.20;94.00;;;;;;5379821;26;20006;-41
2024/04/22 03:57:59;;;;;;;1.95;1.52;;;13.20;94.00;;;;;;5381147;26;19996;-40
2024/04/22 04:00:24;;;;;;;2.88;1.77;;;13.20;94.00;;;;;;5381159;26;20010;-41
2024/04/22 04:02:50;;;;;;;2.38;1.65;;;13.20;94.00;;;;;;5380937;26;19996;-40
2024/04/22 04:05:16;;;;;;;1.95;1.60;;;13.10;94.00;;;;;;5380163;26;20008;-42
2024/04/22 04:07:42;;;;;;;2.10;1.50;;;13.10;94.10;;;;;;5379565;26;20000;-42
2024/04/22 04:10:07;;;;;;;1.85;1.58;;;13.10;94.10;;;;;;5379604;26;20028;-41
2024/04/22 04:12:33;;;;;;;1.60;1.35;;;13.10;94.00;;;;;;5379520;26;20007;-41
2024/04/22 04:14:58;;;;;;;2.33;1.50;;;13.10;94.00;;;;;;5379485;26;20378;-41
2024/04/22 04:17:24;;;;;;;1.92;1.60;;;13.10;94.00;;;;;;5379358;26;19996;-41
2024/04/22 04:19:50;;;;;;;2.38;1.70;;;13.10;94.00;;;;;;5379414;26;20000;-42
2024/04/22 04:22:15;;;;;;;2.67;1.85;;;13.10;94.00;;;;;;5379178;26;20520;-41
2024/04/22 04:24:41;;;;;;;1.85;1.42;;;13.10;94.00;;;;;;5379422;26;20037;-41
2024/04/22 04:27:06;;;;;;;2.60;1.70;;;13.10;93.90;;;;;;5379287;26;20539;-41
2024/04/22 04:29:32;;;;;;;1.83;1.58;;;13.10;93.90;;;;;;5379106;26;20008;-41
2024/04/22 04:31:58;;;;;;;1.67;1.58;;;13.10;93.90;;;;;;5379056;26;20015;-42
2024/04/22 04:34:23;;;;;;;2.78;1.70;;;13.10;93.90;;;;;;5379078;26;20344;-41
2024/04/22 04:36:49;;;;;;;2.35;1.50;;;13.10;93.90;;;;;;5380277;26;20341;-41
2024/04/22 04:39:15;;;;;;;2.72;1.60;;;13.10;93.90;;;;;;5382530;26;20006;-41
2024/04/22 04:41:40;;;;;;;1.63;1.30;;;13.10;93.90;;;;;;5382366;26;20006;-43
2024/04/22 04:44:07;;;;;;;2.47;1.35;;;13.10;93.90;;;;;;5382638;26;20357;-42
2024/04/22 04:46:32;;;;;;;2.17;1.50;;;13.10;93.90;;;;;;5382332;26;20382;-42
2024/04/22 04:48:58;;;;;;;4.43;2.72;;;13.10;93.90;;;;;;5382317;26;19996;-40
2024/04/22 04:51:23;;;;;;;4.75;2.70;;;12.90;88.30;;;;;;5382528;26;20074;-41
2024/04/22 04:53:49;;;;;;;7.07;2.92;;;12.40;89.30;;;;;;5383032;26;20348;-43
2024/04/22 04:56:15;;;;;;;4.15;2.78;;;12.20;90.70;;;;;;5382361;26;20028;-41
2024/04/22 04:58:41;;;;;;;4.90;2.72;;;12.20;91.30;;;;;;5382270;26;20433;-41
2024/04/22 05:01:06;;;;;;;3.70;2.70;;;12.30;91.40;;;;;;5382298;26;20050;-41
2024/04/22 05:03:32;;;;;;;3.97;2.45;;;12.40;91.70;;;;;;5382328;26;20461;-42
2024/04/22 05:05:59;;;;;;;3.95;2.30;;;12.40;91.80;;;;;;5382349;26;20326;-41
2024/04/22 05:08:25;;;;;;;3.67;2.50;;;12.50;92.30;;;;;;5382097;26;20007;-41
2024/04/22 05:10:50;;;;;;;4.50;2.80;;;12.60;92.00;;;;;;5382049;26;20000;-42
2024/04/22 05:13:16;;;;;;;4.88;3.13;;;12.60;92.10;;;;;;5382217;26;20528;-42
2024/04/22 05:15:42;;;;;;;3.88;2.40;;;12.70;92.20;;;;;;5382043;26;20751;-43
2024/04/22 05:18:07;;;;;;;3.72;2.33;;;12.70;92.20;;;;;;5382363;26;20051;-43
2024/04/22 05:20:33;;;;;;;4.03;2.53;;;12.70;92.20;;;;;;5382385;26;19996;-41
2024/04/22 05:22:59;;;;;;;3.38;2.05;;;12.70;92.30;;;;;;5382070;26;19996;-41
2024/04/22 05:25:24;;;;;;;3.67;2.10;;;12.80;92.40;;;;;;5381966;26;20000;-41
2024/04/22 05:27:50;;;;;;;3.13;2.28;;;12.80;92.50;;;;;;5381871;26;20449;-42
2024/04/22 05:30:16;;;;;;;2.58;1.92;;;12.80;92.50;;;;;;5381866;26;20424;-42
2024/04/22 05:32:41;;;;;;;3.67;2.17;;;12.80;92.50;;;;;;5381970;26;20469;-42
2024/04/22 05:37:51;;;;;;;2.17;1.77;;;12.80;92.60;;;;;;5381783;26;20065;-42
2024/04/22 05:40:17;;;;;;;6.18;2.10;;;12.80;92.60;;;;;;5381779;26;20329;-44
2024/04/22 05:42:43;;;;;;;2.25;1.77;;;12.80;92.60;;;;;;5380085;26;20435;-44
2024/04/22 05:45:08;;;;;;;2.67;1.83;;;12.80;92.60;;;;;;5381597;26;19996;-44
2024/04/22 05:47:34;;;;;;;2.60;1.92;;;12.80;92.60;;;;;;5380900;26;20068;-45
2024/04/22 05:49:59;;;;;;;3.42;2.00;;;12.80;92.70;;;;;;5381786;26;20070;-41
2024/04/22 05:52:27;;;;;;;3.22;2.00;;;12.80;92.70;;;;;;5381688;26;20098;-42
2024/04/22 05:54:52;;;;;;;3.60;1.88;;;12.80;92.70;;;;;;5381598;26;20445;-41
2024/04/22 05:57:19;;;;;;;2.83;1.92;;;12.80;92.70;;;;;;5381745;26;20011;-42
2024/04/22 05:59:44;;;;;;;2.63;1.85;;;12.80;92.70;;;;;;5381393;26;19996;-43
2024/04/22 06:02:10;;;;;;;2.38;1.67;;;12.80;92.70;;;;;;5381687;26;20054;-42
2024/04/22 06:04:36;;;;;;;2.33;1.80;;;12.80;92.70;;;;;;5381589;26;20001;-41
2024/04/22 06:07:01;;;;;;;3.10;1.90;;;12.80;92.80;;;;;;5381522;26;20460;-43
2024/04/22 06:09:27;;;;;;;2.35;1.90;;;12.80;92.80;;;;;;5381870;26;19996;-42
2024/04/22 06:11:53;;;;;;;4.15;1.90;;;12.80;92.80;;;;;;5381322;26;20000;-41
2024/04/22 06:14:18;;;;;;;2.47;1.90;;;12.80;92.80;;;;;;5381224;26;19996;-43
2024/04/22 06:16:45;;;;;;;3.65;1.70;;;12.80;92.80;;;;;;5381241;26;20372;-43
2024/04/22 06:19:10;;;;;;;2.65;2.00;;;12.80;92.80;;;;;;5381154;26;20467;-42
2024/04/22 06:21:36;;;;;;;2.50;1.73;;;12.90;92.80;;;;;;5381203;26;20000;-41
2024/04/22 06:24:02;;;;;;;2.20;1.80;;;12.90;92.70;;;;;;5381125;26;20011;-41
2024/04/22 06:26:28;;;;;;;4.22;1.65;;;12.90;92.80;;;;;;5381353;26;20000;-40
2024/04/22 06:28:54;;;;;;;2.85;1.70;;;12.90;92.80;;;;;;5381079;26;19996;-40
2024/04/22 06:31:20;;;;;;;2.97;1.80;;;12.80;93.10;;;;;;5381072;26;20523;-40
2024/04/22 06:33:46;;;;;;;2.42;1.75;;;12.90;92.80;;;;;;5381047;26;20393;-41
2024/04/22 06:36:12;;;;;;;3.33;1.73;;;12.90;92.80;;;;;;5380868;26;19996;-40
2024/04/22 06:38:38;;;;;;;2.15;1.58;;;12.90;92.70;;;;;;5380781;26;20011;-40
2024/04/22 06:41:04;;;;;;;3.90;1.60;;;12.90;92.80;;;;;;5380961;26;20455;-41
2024/04/22 06:43:30;;;;;;;3.75;1.75;;;12.90;92.80;;;;;;5380871;26;20046;-41
2024/04/22 06:45:56;;;;;;;2.88;1.80;;;12.90;92.80;;;;;;5380842;26;20068;-42
2024/04/22 06:48:22;;;;;;;4.65;1.92;;;12.90;92.80;;;;;;5379462;26;20011;-40
2024/04/22 06:50:49;;;;;;;2.78;1.73;;;12.90;92.80;;;;;;5380901;26;20012;-40
2024/04/22 06:53:17;;;;;;;1.92;1.60;;;12.90;92.70;;;;;;5380721;26;20012;-41
2024/04/22 06:55:43;;;;;;;2.67;1.60;;;12.90;92.70;;;;;;5380545;26;20008;-40
2024/04/22 06:58:08;;;;;;;3.08;1.70;;;12.90;92.70;;;;;;5380772;26;20519;-40
2024/04/22 07:00:34;;;;;;;5.43;2.30;;;12.90;92.70;;;;;;5379666;26;20000;-39
2024/04/22 07:03:00;;;;;;;3.53;2.08;;;12.70;87.30;;;;;;5381513;26;20465;-39
2024/04/22 07:05:26;;;;;;;3.50;2.00;;;12.50;89.00;;;;;;5381352;26;20418;-39
2024/04/22 07:07:51;;;;;;;4.15;1.77;;;12.50;90.20;;;;;;5381256;26;20000;-39
2024/04/22 07:10:17;;;;;;;5.15;2.30;;;12.40;90.60;;;;;;5381000;26;20357;-39
2024/04/22 07:12:43;;;;;;;2.28;1.90;;;12.50;90.90;;;;;;5381402;26;20000;-39
2024/04/22 07:15:09;;;;;;;5.95;2.00;;;12.50;91.10;;;;;;5381212;26;20350;-39
2024/04/22 07:17:36;;;;;;;2.78;2.00;;;12.50;91.20;;;;;;5380528;26;20007;-38
2024/04/22 07:20:02;;;;;;;3.40;2.00;;;12.60;91.30;;;;;;5380793;26;20015;-39
2024/04/22 07:22:29;;;;;;;3.42;2.00;;;12.60;91.40;;;;;;5380536;26;20441;-39
2024/04/22 07:24:55;;;;;;;3.00;1.92;;;12.60;91.50;;;;;;5380547;26;19993;-39
2024/04/22 07:27:24;;;;;;;4.25;1.60;;;12.70;91.60;;;;;;5380326;26;20074;-39
2024/04/22 07:29:51;;;;;;;2.53;1.80;;;12.70;91.60;;;;;;5380598;26;20004;-39
2024/04/22 07:32:17;;;;;;;2.88;1.88;;;12.70;91.60;;;;;;5380751;26;20349;-39
2024/04/22 07:34:44;;;;;;;2.53;1.75;;;12.70;91.70;;;;;;5380552;26;19992;-39
2024/04/22 07:37:45;;;;;;;3.83;1.70;;;12.70;91.70;;;;;;5380709;26;20007;-40
2024/04/22 07:40:13;;;;;;;2.97;1.60;;;12.70;91.80;;;;;;5385121;26;20399;-40
2024/04/22 07:42:39;;;;;;;2.83;1.95;;;12.70;91.80;;;;;;5380505;26;20126;-40
2024/04/22 07:45:05;;;;;;;4.10;1.90;;;12.70;91.80;;;;;;5380543;26;19988;-41
2024/04/22 07:47:32;;;;;;;2.50;1.73;;;12.80;91.80;;;;;;5380582;26;20014;-40
2024/04/22 07:49:58;;;;;;;2.72;1.60;;;12.80;91.90;;;;;;5380773;26;20442;-40
2024/04/22 07:52:24;;;;;;;2.75;1.75;;;12.80;91.90;;;;;;5380655;26;20094;-39
2024/04/22 07:54:50;;;;;;;3.92;1.88;;;12.80;91.90;;;;;;5380793;26;20003;-39
2024/04/22 07:57:16;;;;;;;5.22;1.80;;;12.80;92.00;;;;;;5379775;26;20011;-39
2024/04/22 07:59:42;;;;;;;3.15;1.75;;;12.80;92.00;;;;;;5379038;26;20007;-40
2024/04/22 08:02:09;;;;;;;2.85;1.67;;;12.70;92.00;;;;;;5380687;26;20003;-40
2024/04/22 08:04:34;;;;;;;2.25;1.45;;;12.70;92.10;;;;;;5380935;26;20007;-40
2024/04/22 08:07:03;;;;;;;2.05;1.45;;;12.80;92.10;;;;;;5380601;26;20020;-39
2024/04/22 08:09:29;;;;;;;3.03;1.45;;;12.80;92.10;;;;;;5380201;26;20430;-39
2024/04/22 08:11:55;;;;;;;2.65;1.63;;;12.80;92.10;;;;;;5382671;26;19993;-41
2024/04/22 08:14:21;;;;;;;4.20;1.90;;;12.80;92.10;;;;;;5382771;26;20424;-42
2024/04/22 08:16:47;;;;;;;4.78;2.25;;;12.60;85.50;;;;;;5382921;26;20003;-40
2024/04/22 08:19:13;;;;;;;4.28;2.25;;;12.40;85.10;;;;;;5383110;26;20061;-41
2024/04/22 08:21:38;;;;;;;3.90;2.10;;;12.30;87.00;;;;;;5383219;26;20322;-40
2024/04/22 08:24:04;;;;;;;3.33;2.08;;;12.30;88.30;;;;;;5383069;26;20471;-40
2024/04/22 08:26:30;;;;;;;3.45;1.80;;;12.40;89.00;;;;;;5382770;26;20026;-40
2024/04/22 08:28:56;;;;;;;2.60;1.73;;;12.50;89.60;;;;;;5382643;26;20019;-41
2024/04/22 08:31:21;;;;;;;3.65;2.00;;;12.60;90.00;;;;;;5382813;26;20518;-41
2024/04/22 08:33:47;;;;;;;2.58;1.73;;;12.60;90.10;;;;;;5383030;26;20004;-41
2024/04/22 08:36:14;;;;;;;3.00;1.70;;;12.70;90.20;;;;;;5382932;26;20002;-40
2024/04/22 08:38:40;;;;;;;4.50;2.03;;;12.70;90.40;;;;;;5383348;26;19992;-41
2024/04/22 08:41:10;;;;;;;4.07;1.85;;;12.80;90.40;;;;;;5383294;26;19992;-41
2024/04/22 08:43:36;;;;;;;2.50;1.52;;;12.80;90.50;;;;;;5381982;26;19992;-41
2024/04/22 08:46:02;;;;;;;5.47;1.52;;;12.90;90.60;;;;;;5389432;21;20024;-41
2024/04/22 08:48:28;;;;;;;4.05;1.70;;;12.90;90.60;;;;;;5348108;26;20453;-41
2024/04/22 08:50:55;;;;;;;2.45;1.50;;;12.90;90.80;;;;;;5348838;26;20074;-42
2024/04/22 08:53:21;;;;;;;2.45;1.35;;;12.90;90.80;;;;;;5347531;26;20070;-42
2024/04/22 08:55:46;;;;;;;2.60;1.60;;;13.00;91.20;;;;;;5347288;26;20009;-44
2024/04/22 08:58:12;;;;;;;3.42;1.70;;;13.00;90.90;;;;;;5347645;26;20353;-43
2024/04/22 09:00:39;;;;;;;2.88;1.70;;;13.00;91.00;;;;;;5348239;26;20066;-43
2024/04/22 09:03:06;;;;;;;2.55;1.52;;;13.00;91.00;;;;;;5348431;26;20465;-43
2024/04/22 09:05:32;;;;;;;1.92;1.30;;;13.10;91.00;;;;;;5348344;26;19993;-42
2024/04/22 09:07:58;;;;;;;2.08;1.40;;;13.10;91.00;;;;;;5347502;26;19997;-41
2024/04/22 09:10:24;;;;;;;1.98;1.30;;;13.10;91.00;;;;;;5348854;26;20643;-42
2024/04/22 09:12:57;;;;;;;2.47;1.35;;;13.10;91.50;;;;;;5348734;26;20012;-41
2024/04/22 09:15:23;;;;;;;2.73;1.83;;;13.10;91.20;;;;;;5348529;26;19997;-41
2024/04/22 09:17:49;;;;;;;2.85;1.77;;;13.10;91.10;;;;;;5349181;26;19993;-41
2024/04/22 09:20:33;;;;;;;3.05;1.60;;;13.10;91.20;;;;;;5348882;26;20016;-42
2024/04/22 09:22:59;;;;;;;2.80;1.67;;;13.10;91.20;;;;;;5346305;26;20032;-41
2024/04/22 09:25:24;;;;;;;3.75;1.98;;;13.20;91.20;;;;;;5348210;26;19996;-42
2024/04/22 09:27:51;;;;;;;2.30;1.73;;;13.20;91.20;;;;;;5348173;26;20000;-44
2024/04/22 09:30:20;;;;;;;5.43;1.95;;;13.20;91.20;;;;;;5349375;26;20011;-41
2024/04/22 09:32:51;;;;;;;3.85;1.88;;;13.20;91.20;;;;;;5348354;26;20481;-41
2024/04/22 09:35:21;;;;;;;3.80;1.90;;;13.30;91.20;;;;;;5347701;26;20001;-42
2024/04/22 09:37:48;;;;;;;3.53;1.88;;;13.30;91.20;;;;;;5347605;26;20075;-44
2024/04/22 09:40:16;;;;;;;3.08;1.60;;;13.30;91.10;;;;;;5346092;26;19997;-43
2024/04/22 09:42:44;;;;;;;2.83;1.60;;;13.40;91.10;;;;;;5348138;26;20539;-42
2024/04/22 09:45:11;;;;;;;1.85;1.35;;;13.40;91.00;;;;;;5347331;26;20029;-44
2024/04/22 09:47:39;;;;;;;2.03;1.50;;;13.50;91.00;;;;;;5346947;26;20474;-42
2024/04/22 09:50:08;;;;;;;2.60;1.60;;;13.50;90.90;;;;;;5346762;26;19997;-40
2024/04/22 09:52:35;;;;;;;3.38;1.63;;;13.60;90.90;;;;;;5346586;26;20008;-41
2024/04/22 09:55:02;;;;;;;1.70;1.38;;;13.60;90.80;;;;;;5347571;26;20001;-44
2024/04/22 09:57:30;;;;;;;1.75;1.25;;;13.70;90.80;;;;;;5347900;26;20457;-42
2024/04/22 09:59:57;;;;;;;2.20;1.38;;;13.70;90.80;;;;;;5347553;26;20001;-41
2024/04/22 10:02:23;;;;;;;2.28;1.40;;;13.70;90.80;;;;;;5348711;26;19997;-40
2024/04/22 10:04:49;;;;;;;2.30;1.60;;;13.70;90.80;;;;;;5347178;26;19993;-41
2024/04/22 10:07:15;;;;;;;2.50;1.70;;;13.70;90.80;;;;;;5347088;26;20478;-41
2024/04/22 10:09:41;;;;;;;2.67;1.67;;;13.80;90.80;;;;;;5346996;26;20005;-40
2024/04/22 10:12:08;;;;;;;2.50;1.50;;;13.80;90.80;;;;;;5346466;26;20012;-41
2024/04/22 10:14:34;;;;;;;1.98;1.50;;;13.80;90.70;;;;;;5346888;26;20315;-43
2024/04/22 10:17:00;;;;;;;2.00;1.13;;;13.80;90.70;;;;;;5348009;26;20007;-43
2024/04/22 10:19:30;;;;;;;2.28;1.45;;;13.80;90.70;;;;;;5347430;26;20001;-42
2024/04/22 10:22:00;;;;;;;2.05;1.35;;;13.80;90.70;;;;;;5346841;26;20492;-40
2024/04/22 10:24:30;;;;;;;3.10;1.30;;;13.90;90.80;;;;;;5346961;26;20012;-40
2024/04/22 10:26:57;;;;;;;2.85;1.52;;;13.90;90.70;;;;;;5346462;26;20442;-44
2024/04/22 10:29:23;;;;;;;2.38;1.52;;;13.80;90.70;;;;;;5348129;26;20001;-44
2024/04/22 10:31:49;;;;;;;1.90;1.52;;;13.80;90.80;;;;;;5347989;26;20007;-42
2024/04/22 10:34:15;;;;;;;1.80;1.30;;;13.80;90.80;;;;;;5347419;26;20370;-40
2024/04/22 10:36:40;;;;;;;1.98;1.50;;;13.80;90.80;;;;;;5346992;26;19997;-41
2024/04/22 10:39:06;;;;;;;2.03;1.38;;;13.80;90.70;;;;;;5346631;26;20012;-43
2024/04/22 10:41:32;;;;;;;1.73;1.30;;;13.80;90.70;;;;;;5345958;26;20095;-42
2024/04/22 10:43:57;;;;;;;1.58;1.23;;;13.80;90.70;;;;;;5347553;26;19996;-42
2024/04/22 10:46:23;;;;;;;1.42;1.30;;;13.80;90.70;;;;;;5346491;26;19997;-41
2024/04/22 10:48:49;;;;;;;2.38;1.35;;;13.80;90.80;;;;;;5346253;26;20012;-45
2024/04/22 10:51:16;;;;;;;2.20;1.50;;;13.80;90.80;;;;;;5346557;26;20059;-43
2024/04/22 10:53:42;;;;;;;2.90;1.70;;;13.80;90.80;;;;;;5346279;26;20025;-39
2024/04/22 10:56:07;;;;;;;4.45;1.95;;;13.70;84.40;;;;;;5338949;26;20016;-40
2024/04/22 10:58:34;;;;;;;5.13;1.90;;;13.40;76.40;;;;;;5344953;26;20082;-40
2024/04/22 11:01:00;;;;;;;3.38;1.70;;;13.30;78.60;;;;;;5344942;26;20028;-40
2024/04/22 11:03:26;;;;;;;2.97;1.70;;;13.40;81.40;;;;;;5346398;26;20001;-40
2024/04/22 11:05:59;;;;;;;3.75;1.50;;;13.50;82.90;;;;;;5348048;26;19997;-40
2024/04/22 11:08:26;;;;;;;2.75;1.48;;;13.50;83.70;;;;;;5347401;26;20005;-39
2024/04/22 11:10:52;;;;;;;4.10;2.00;;;13.60;84.70;;;;;;5345893;26;20001;-41
2024/04/22 11:13:18;;;;;;;2.42;1.50;;;13.60;85.50;;;;;;5345946;26;20070;-40
2024/04/22 11:15:43;;;;;;;2.67;1.60;;;13.60;85.90;;;;;;5347020;26;19997;-40
2024/04/22 11:18:09;;;;;;;2.17;1.42;;;13.70;86.30;;;;;;5345945;26;20033;-40
2024/04/22 11:20:36;;;;;;;3.65;1.58;;;13.70;86.50;;;;;;5345470;26;20442;-40
2024/04/22 11:23:02;;;;;;;2.33;1.40;;;13.80;86.80;;;;;;5345753;26;20012;-40
2024/04/22 11:25:27;;;;;;;2.00;1.23;;;13.80;87.00;;;;;;5346634;26;19993;-40
2024/04/22 11:27:53;;;;;;;2.30;1.50;;;13.80;88.00;;;;;;5346403;26;20075;-40
2024/04/22 11:30:19;;;;;;;1.45;1.17;;;13.80;87.50;;;;;;5345568;26;20468;-41
2024/04/22 11:32:44;;;;;;;1.92;1.30;;;13.90;88.40;;;;;;5345698;26;20000;-39
2024/04/22 11:35:12;;;;;;;3.25;1.75;;;13.90;87.60;;;;;;5345857;26;19996;-40
2024/04/22 11:37:37;;;;;;;3.05;1.50;;;13.90;81.10;;;;;;5345150;26;20467;-40
2024/04/22 11:40:04;;;;;;;3.13;1.90;;;13.90;82.10;;;;;;5345347;26;20008;-41
2024/04/22 11:42:30;;;;;;;3.10;1.83;;;13.80;78.70;;;;;;5346219;26;20029;-40
2024/04/22 11:44:56;;;;;;;1.88;1.40;;;13.80;78.80;;;;;;5346926;26;19993;-39
2024/04/22 11:47:26;;;;;;;3.90;1.33;;;13.70;79.70;;;;;;5353032;26;20001;-41
2024/04/22 11:49:53;;;;;;;2.95;1.40;;;13.70;80.70;;;;;;5352633;26;20020;-40
2024/04/22 11:52:22;;;;;;;2.70;1.38;;;13.80;81.80;;;;;;5353735;26;20009;-40
2024/04/22 11:54:49;;;;;;;3.22;1.35;;;13.80;82.40;;;;;;5323748;26;20471;-40
2024/04/22 11:57:14;;;;;;;2.85;1.40;;;13.80;82.80;;;;;;5352874;26;20071;-40
2024/04/22 11:59:40;;;;;;;2.00;1.35;;;13.90;83.30;;;;;;5353218;26;20001;-41
2024/04/22 12:02:08;;;;;;;2.35;1.25;;;14.00;83.80;;;;;;5352161;26;20001;-39
2024/04/22 12:04:33;;;;;;;1.38;1.10;;;14.00;84.00;;;;;;5353011;26;20042;-40
2024/04/22 12:06:59;;;;;;;2.35;1.30;;;14.00;84.20;;;;;;5352810;26;20462;-39
2024/04/22 12:09:24;;;;;;;1.40;1.20;;;14.10;84.60;;;;;;5352684;26;20012;-40
2024/04/22 12:11:50;;;;;;;2.00;1.20;;;14.10;84.80;;;;;;5352758;26;20009;-40
2024/04/22 12:14:16;;;;;;;1.33;1.00;;;14.10;85.00;;;;;;5353219;26;20011;-41
2024/04/22 12:16:41;;;;;;;1.77;1.05;;;14.20;85.30;;;;;;5352019;26;20011;-40
2024/04/22 12:19:07;;;;;;;1.45;1.00;;;14.20;85.50;;;;;;5352482;26;20013;-40
2024/04/22 12:21:32;;;;;;;1.58;1.05;;;14.20;85.60;;;;;;5352960;26;20074;-40
2024/04/22 12:23:58;;;;;;;1.90;1.27;;;14.30;85.80;;;;;;5353532;26;20096;-39
2024/04/22 12:26:24;;;;;;;1.65;1.20;;;14.30;85.80;;;;;;5353259;26;20004;-40
2024/04/22 12:28:49;;;;;;;1.58;1.15;;;14.30;85.90;;;;;;5352141;26;20008;-40
2024/04/22 12:31:15;;;;;;;1.90;0.90;;;14.40;86.00;;;;;;5352738;26;20485;-41
2024/04/22 12:33:40;;;;;;;2.28;1.02;;;14.40;86.10;;;;;;5352499;26;20075;-40
2024/04/22 12:36:06;;;;;;;1.55;1.00;;;14.40;86.10;;;;;;5352659;26;19996;-39
2024/04/22 12:38:32;;;;;;;3.13;1.13;;;14.40;86.20;;;;;;5352429;26;20001;-41
2024/04/22 12:40:58;;;;;;;1.80;1.20;;;14.50;86.20;;;;;;5353116;26;20015;-41
2024/04/22 12:43:23;;;;;;;3.10;1.20;;;14.50;86.30;;;;;;5351633;26;20024;-40
2024/04/22 12:45:54;;;;;;;1.67;0.90;;;14.50;86.40;;;;;;5351843;26;20007;-41
2024/04/22 12:51:04;;;;;;;1.20;0.85;;;14.50;86.40;;;;;;5352065;26;20007;-40